createdAt,value
2023-04-27T00:02:16.692Z,87.24
2023-04-27T00:04:45.156Z,87.24
2023-04-27T00:07:12.437Z,87.57
2023-04-27T00:09:39.512Z,88.04
2023-04-27T00:12:07.195Z,87.88
2023-04-27T00:14:34.288Z,87.81
2023-04-27T00:17:01.228Z,87.86
2023-04-27T00:19:28.556Z,87.28
2023-04-27T00:21:55.711Z,87.40
2023-04-27T00:24:22.518Z,86.88
2023-04-27T00:26:49.438Z,86.50
2023-04-27T00:29:16.737Z,86.25
2023-04-27T00:31:43.847Z,86.13
2023-04-27T00:34:10.976Z,84.93
2023-04-27T00:36:38.026Z,84.99
2023-04-27T00:39:06.635Z,85.71
2023-04-27T00:41:33.619Z,86.42
2023-04-27T00:44:00.675Z,86.55
2023-04-27T00:46:28.214Z,86.65
2023-04-27T00:48:56.228Z,85.98
2023-04-27T00:51:27.896Z,86.06
2023-04-27T00:53:55.929Z,85.69
2023-04-27T00:56:22.896Z,85.28
2023-04-27T00:59:05.713Z,85.14
2023-04-27T01:08:15.205Z,84.06
2023-04-27T01:10:42.437Z,84.26
2023-04-27T01:13:10.415Z,84.35
2023-04-27T01:15:38.011Z,84.14
2023-04-27T01:18:09.085Z,84.25
2023-04-27T01:20:38.039Z,84.43
2023-04-27T01:23:05.128Z,84.95
2023-04-27T01:25:33.091Z,84.99
2023-04-27T01:28:02.304Z,85.28
2023-04-27T01:30:30.486Z,85.32
2023-04-27T01:32:58.823Z,85.85
2023-04-27T01:35:28.109Z,85.84
2023-04-27T01:37:56.693Z,85.79
2023-04-27T01:40:23.390Z,86.41
2023-04-27T01:42:50.122Z,86.86
2023-04-27T01:45:16.969Z,87.40
2023-04-27T01:47:43.765Z,87.61
2023-04-27T01:50:11.264Z,87.47
2023-04-27T01:52:39.463Z,87.23
2023-04-27T01:55:06.689Z,87.66
2023-04-27T01:57:33.535Z,88.21
2023-04-27T02:00:01.094Z,88.15
2023-04-27T02:02:28.669Z,88.14
2023-04-27T02:04:55.600Z,87.54
2023-04-27T02:07:22.424Z,87.53
2023-04-27T02:09:49.880Z,88.14
2023-04-27T02:12:16.722Z,89.04
2023-04-27T02:14:43.683Z,89.70
2023-04-27T02:17:10.524Z,90.33
2023-04-27T02:19:37.318Z,90.67
2023-04-27T02:22:05.517Z,90.48
2023-04-27T02:24:32.383Z,90.29
2023-04-27T02:27:01.207Z,89.76
2023-04-27T02:29:31.033Z,89.98
2023-04-27T02:31:58.376Z,90.03
2023-04-27T02:34:25.232Z,89.66
2023-04-27T02:36:51.938Z,89.24
2023-04-27T02:39:18.572Z,89.07
2023-04-27T02:41:45.246Z,88.88
2023-04-27T02:44:11.875Z,89.21
2023-04-27T02:46:38.623Z,88.94
2023-04-27T02:49:05.515Z,89.10
2023-04-27T02:51:32.321Z,89.32
2023-04-27T02:53:59.001Z,89.71
2023-04-27T02:56:27.178Z,89.72
2023-04-27T02:58:53.995Z,89.68
2023-04-27T03:01:20.757Z,89.12
2023-04-27T03:03:47.738Z,88.72
2023-04-27T03:06:14.749Z,88.87
2023-04-27T03:08:41.655Z,88.83
2023-04-27T03:11:11.931Z,88.81
2023-04-27T03:13:42.021Z,88.74
2023-04-27T03:16:10.748Z,88.38
2023-04-27T03:18:38.756Z,87.91
2023-04-27T03:21:09.034Z,87.99
2023-04-27T03:23:36.250Z,88.72
2023-04-27T03:26:11.389Z,89.24
2023-04-27T03:28:38.221Z,89.36
2023-04-27T03:31:09.015Z,89.74
2023-04-27T03:33:36.108Z,90.49
2023-04-27T03:36:03.881Z,90.60
2023-04-27T03:38:30.864Z,90.56
2023-04-27T03:40:57.770Z,90.23
2023-04-27T03:43:25.112Z,89.79
2023-04-27T03:45:52.088Z,89.19
2023-04-27T03:48:19.171Z,89.15
2023-04-27T03:50:46.919Z,88.60
2023-04-27T03:53:13.856Z,88.29
2023-04-27T03:55:41.680Z,87.94
2023-04-27T03:58:12.025Z,87.88
2023-04-27T04:00:47.857Z,86.81
2023-04-27T04:03:16.542Z,87.16
2023-04-27T04:05:46.466Z,87.29
2023-04-27T04:08:13.571Z,87.03
2023-04-27T04:10:40.338Z,87.07
2023-04-27T04:13:07.082Z,86.99
2023-04-27T04:15:33.984Z,87.03
2023-04-27T04:18:00.971Z,86.61
2023-04-27T04:20:30.155Z,86.25
2023-04-27T04:22:57.122Z,85.39
2023-04-27T04:25:27.026Z,85.57
2023-04-27T04:27:55.747Z,85.69
2023-04-27T04:30:22.920Z,85.79
2023-04-27T04:32:49.727Z,86.24
2023-04-27T04:35:19.299Z,86.28
2023-04-27T04:37:46.237Z,86.42
2023-04-27T04:40:13.394Z,86.23
2023-04-27T04:42:40.065Z,86.52
2023-04-27T04:45:08.085Z,86.61
2023-04-27T04:47:36.004Z,85.93
2023-04-27T04:50:03.438Z,86.28
2023-04-27T04:52:30.688Z,86.14
2023-04-27T04:54:57.376Z,86.16
2023-04-27T04:57:23.917Z,85.57
2023-04-27T04:59:50.592Z,85.23
2023-04-27T05:02:17.977Z,83.98
2023-04-27T05:04:45.016Z,83.69
2023-04-27T05:07:14.772Z,83.83
2023-04-27T05:09:41.890Z,83.99
2023-04-27T05:12:09.547Z,84.33
2023-04-27T05:14:36.411Z,84.06
2023-04-27T05:17:04.013Z,84.63
2023-04-27T05:19:35.094Z,85.01
2023-04-27T05:22:10.855Z,84.10
2023-04-27T05:24:37.865Z,83.33
2023-04-27T05:27:04.949Z,83.89
2023-04-27T05:29:32.493Z,84.13
2023-04-27T05:32:02.554Z,84.44
2023-04-27T05:34:30.191Z,85.10
2023-04-27T05:37:06.498Z,85.48
2023-04-27T05:39:36.493Z,86.10
2023-04-27T05:42:11.017Z,86.41
2023-04-27T05:44:43.954Z,85.59
2023-04-27T05:47:12.960Z,85.48
2023-04-27T05:49:46.727Z,85.23
2023-04-27T05:52:18.014Z,85.32
2023-04-27T05:54:52.019Z,84.27
2023-04-27T05:57:35.372Z,83.66
2023-04-27T06:00:16.520Z,83.70
2023-04-27T06:02:46.436Z,83.12
2023-04-27T06:05:15.968Z,83.31
2023-04-27T06:07:48.788Z,83.24
2023-04-27T06:10:25.584Z,82.66
2023-04-27T06:12:55.980Z,82.52
2023-04-27T06:15:24.624Z,82.37
2023-04-27T06:18:24.629Z,82.05
2023-04-27T06:20:52.114Z,81.06
2023-04-27T06:23:18.804Z,81.30
2023-04-27T06:25:45.644Z,81.24
2023-04-27T06:28:16.160Z,81.22
2023-04-27T06:30:44.489Z,80.10
2023-04-27T06:33:15.418Z,80.80
2023-04-27T06:36:15.929Z,81.21
2023-04-27T06:38:46.488Z,80.93
2023-04-27T06:41:32.470Z,80.09
2023-04-27T06:44:03.661Z,80.09
2023-04-27T06:46:35.030Z,80.30
2023-04-27T06:49:05.817Z,80.37
2023-04-27T06:51:35.210Z,80.54
2023-04-27T06:54:08.018Z,80.61
2023-04-27T06:56:40.533Z,78.84
2023-04-27T06:59:09.137Z,78.68
2023-04-27T07:02:00.504Z,79.01
2023-04-27T07:04:42.793Z,79.49
2023-04-27T07:07:17.534Z,79.66
2023-04-27T07:09:53.532Z,80.21
2023-04-27T07:12:23.381Z,80.29
2023-04-27T07:14:52.321Z,80.81
2023-04-27T07:17:22.763Z,80.90
2023-04-27T07:19:54.434Z,80.71
2023-04-27T07:26:03.345Z,79.61
2023-04-27T07:28:47.565Z,79.76
2023-04-27T07:31:44.204Z,79.24
2023-04-27T07:34:37.925Z,78.91
